sensor_id;sensor_type;location;lat;lon;timestamp;temperature;humidity
70807;DHT22;58882;52.170;5.386;2022-09-02T00:01:52;23.40;36.40
70807;DHT22;58882;52.170;5.386;2022-09-02T00:04:32;23.30;36.30
70807;DHT22;58882;52.170;5.386;2022-09-02T00:07:19;23.30;36.40
70807;DHT22;58882;52.170;5.386;2022-09-02T00:09:59;23.30;36.40
70807;DHT22;58882;52.170;5.386;2022-09-02T00:12:46;23.30;36.30
70807;DHT22;58882;52.170;5.386;2022-09-02T00:15:26;23.30;36.60
70807;DHT22;58882;52.170;5.386;2022-09-02T00:18:20;23.30;36.60
70807;DHT22;58882;52.170;5.386;2022-09-02T00:21:00;23.30;36.40
70807;DHT22;58882;52.170;5.386;2022-09-02T00:23:47;23.20;36.40
70807;DHT22;58882;52.170;5.386;2022-09-02T00:26:28;23.30;36.60
70807;DHT22;58882;52.170;5.386;2022-09-02T00:29:15;23.20;36.50
70807;DHT22;58882;52.170;5.386;2022-09-02T00:31:55;23.20;36.50
70807;DHT22;58882;52.170;5.386;2022-09-02T00:34:43;23.20;36.50
70807;DHT22;58882;52.170;5.386;2022-09-02T00:37:25;23.20;36.50
70807;DHT22;58882;52.170;5.386;2022-09-02T00:40:12;23.10;36.50
70807;DHT22;58882;52.170;5.386;2022-09-02T00:42:53;23.10;37.60
70807;DHT22;58882;52.170;5.386;2022-09-02T00:45:48;23.10;36.60
70807;DHT22;58882;52.170;5.386;2022-09-02T00:48:28;23.10;36.60
70807;DHT22;58882;52.170;5.386;2022-09-02T00:51:16;23.10;36.60
70807;DHT22;58882;52.170;5.386;2022-09-02T00:54:11;23.00;36.70
70807;DHT22;58882;52.170;5.386;2022-09-02T00:56:52;23.00;36.90
70807;DHT22;58882;52.170;5.386;2022-09-02T01:00:04;23.00;36.80
70807;DHT22;58882;52.170;5.386;2022-09-02T01:02:48;23.00;36.80
70807;DHT22;58882;52.170;5.386;2022-09-02T01:05:38;23.00;36.80
70807;DHT22;58882;52.170;5.386;2022-09-02T01:08:22;22.90;36.80
70807;DHT22;58882;52.170;5.386;2022-09-02T01:11:18;22.90;36.90
70807;DHT22;58882;52.170;5.386;2022-09-02T01:13:53;22.90;36.90
70807;DHT22;58882;52.170;5.386;2022-09-02T01:16:52;22.90;37.00
70807;DHT22;58882;52.170;5.386;2022-09-02T01:19:38;22.90;37.00
70807;DHT22;58882;52.170;5.386;2022-09-02T01:22:29;22.90;36.90
70807;DHT22;58882;52.170;5.386;2022-09-02T01:25:15;22.90;37.50
70807;DHT22;58882;52.170;5.386;2022-09-02T01:28:06;22.90;37.00
70807;DHT22;58882;52.170;5.386;2022-09-02T01:30:50;22.80;36.90
70807;DHT22;58882;52.170;5.386;2022-09-02T01:33:38;22.80;37.00
70807;DHT22;58882;52.170;5.386;2022-09-02T01:36:18;22.80;37.20
70807;DHT22;58882;52.170;5.386;2022-09-02T01:39:06;22.80;37.10
70807;DHT22;58882;52.170;5.386;2022-09-02T01:41:47;22.80;37.00
70807;DHT22;58882;52.170;5.386;2022-09-02T01:44:42;22.70;37.10
70807;DHT22;58882;52.170;5.386;2022-09-02T01:47:24;22.70;37.20
70807;DHT22;58882;52.170;5.386;2022-09-02T01:50:11;22.70;37.20
70807;DHT22;58882;52.170;5.386;2022-09-02T01:52:51;22.60;37.20
70807;DHT22;58882;52.170;5.386;2022-09-02T01:55:38;22.60;37.20
70807;DHT22;58882;52.170;5.386;2022-09-02T01:58:18;22.60;37.30
70807;DHT22;58882;52.170;5.386;2022-09-02T02:01:12;22.60;37.40
70807;DHT22;58882;52.170;5.386;2022-09-02T02:03:52;22.60;37.40
70807;DHT22;58882;52.170;5.386;2022-09-02T02:06:53;22.50;37.40
70807;DHT22;58882;52.170;5.386;2022-09-02T02:09:27;22.60;37.50
70807;DHT22;58882;52.170;5.386;2022-09-02T02:12:21;22.50;37.30
70807;DHT22;58882;52.170;5.386;2022-09-02T02:15:12;22.50;37.60
70807;DHT22;58882;52.170;5.386;2022-09-02T02:18:07;22.50;37.70
70807;DHT22;58882;52.170;5.386;2022-09-02T02:20:47;22.50;37.60
70807;DHT22;58882;52.170;5.386;2022-09-02T02:23:34;22.50;37.60
70807;DHT22;58882;52.170;5.386;2022-09-02T02:26:15;22.40;37.60
70807;DHT22;58882;52.170;5.386;2022-09-02T02:29:11;22.40;37.60
70807;DHT22;58882;52.170;5.386;2022-09-02T02:31:44;22.40;38.00
70807;DHT22;58882;52.170;5.386;2022-09-02T02:34:38;22.40;37.90
70807;DHT22;58882;52.170;5.386;2022-09-02T02:37:18;22.40;38.10
70807;DHT22;58882;52.170;5.386;2022-09-02T02:40:05;22.40;38.00
70807;DHT22;58882;52.170;5.386;2022-09-02T02:42:48;22.40;37.90
70807;DHT22;58882;52.170;5.386;2022-09-02T02:45:42;22.30;38.90
70807;DHT22;58882;52.170;5.386;2022-09-02T02:48:16;22.30;38.00
70807;DHT22;58882;52.170;5.386;2022-09-02T02:51:10;22.30;38.00
70807;DHT22;58882;52.170;5.386;2022-09-02T02:54:04;22.30;38.20
70807;DHT22;58882;52.170;5.386;2022-09-02T02:56:46;22.30;38.20
70807;DHT22;58882;52.170;5.386;2022-09-02T02:59:33;22.30;38.20
70807;DHT22;58882;52.170;5.386;2022-09-02T03:02:13;22.30;38.20
70807;DHT22;58882;52.170;5.386;2022-09-02T03:05:00;22.30;38.30
70807;DHT22;58882;52.170;5.386;2022-09-02T03:07:40;22.30;38.20
70807;DHT22;58882;52.170;5.386;2022-09-02T03:10:40;22.30;38.20
70807;DHT22;58882;52.170;5.386;2022-09-02T03:13:14;22.30;38.10
70807;DHT22;58882;52.170;5.386;2022-09-02T03:16:08;22.30;38.00
70807;DHT22;58882;52.170;5.386;2022-09-02T03:18:49;22.20;38.10
70807;DHT22;58882;52.170;5.386;2022-09-02T03:21:37;22.20;38.00
70807;DHT22;58882;52.170;5.386;2022-09-02T03:24:17;22.20;38.10
70807;DHT22;58882;52.170;5.386;2022-09-02T03:27:04;22.20;38.10
70807;DHT22;58882;52.170;5.386;2022-09-02T03:29:44;22.20;38.10
70807;DHT22;58882;52.170;5.386;2022-09-02T03:32:31;22.20;38.10
70807;DHT22;58882;52.170;5.386;2022-09-02T03:35:14;22.20;38.30
70807;DHT22;58882;52.170;5.386;2022-09-02T03:38:01;22.20;38.30
70807;DHT22;58882;52.170;5.386;2022-09-02T03:40:42;22.20;39.20
70807;DHT22;58882;52.170;5.386;2022-09-02T03:43:37;22.20;39.30
70807;DHT22;58882;52.170;5.386;2022-09-02T03:46:17;22.20;38.30
70807;DHT22;58882;52.170;5.386;2022-09-02T03:49:04;22.20;38.20
70807;DHT22;58882;52.170;5.386;2022-09-02T03:51:51;22.20;38.40
70807;DHT22;58882;52.170;5.386;2022-09-02T03:54:31;22.10;38.30
70807;DHT22;58882;52.170;5.386;2022-09-02T03:57:18;22.10;38.60
70807;DHT22;58882;52.170;5.386;2022-09-02T04:00:01;22.10;38.30
70807;DHT22;58882;52.170;5.386;2022-09-02T04:02:50;22.10;38.40
70807;DHT22;58882;52.170;5.386;2022-09-02T04:05:32;22.10;38.40
70807;DHT22;58882;52.170;5.386;2022-09-02T04:08:28;22.10;38.50
70807;DHT22;58882;52.170;5.386;2022-09-02T04:11:08;22.10;38.60
70807;DHT22;58882;52.170;5.386;2022-09-02T04:13:58;22.10;38.50
70807;DHT22;58882;52.170;5.386;2022-09-02T04:16:52;22.10;38.40
70807;DHT22;58882;52.170;5.386;2022-09-02T04:19:32;22.10;38.70
70807;DHT22;58882;52.170;5.386;2022-09-02T04:22:19;22.10;38.60
70807;DHT22;58882;52.170;5.386;2022-09-02T04:24:59;22.00;38.50
70807;DHT22;58882;52.170;5.386;2022-09-02T04:27:47;22.00;38.80
70807;DHT22;58882;52.170;5.386;2022-09-02T04:30:27;22.00;38.90
70807;DHT22;58882;52.170;5.386;2022-09-02T04:33:14;22.00;38.80
70807;DHT22;58882;52.170;5.386;2022-09-02T04:35:55;22.00;38.80
70807;DHT22;58882;52.170;5.386;2022-09-02T04:38:53;22.00;38.80
70807;DHT22;58882;52.170;5.386;2022-09-02T04:41:47;22.00;38.90
70807;DHT22;58882;52.170;5.386;2022-09-02T04:44:28;22.00;39.30
70807;DHT22;58882;52.170;5.386;2022-09-02T04:47:15;22.00;39.30
70807;DHT22;58882;52.170;5.386;2022-09-02T04:49:55;22.00;39.30
70807;DHT22;58882;52.170;5.386;2022-09-02T04:52:43;22.00;39.20
70807;DHT22;58882;52.170;5.386;2022-09-02T04:55:40;22.00;38.90
70807;DHT22;58882;52.170;5.386;2022-09-02T04:58:14;22.00;38.90
70807;DHT22;58882;52.170;5.386;2022-09-02T05:01:13;22.00;38.80
70807;DHT22;58882;52.170;5.386;2022-09-02T05:03:57;22.00;38.90
70807;DHT22;58882;52.170;5.386;2022-09-02T05:06:49;22.00;38.80
70807;DHT22;58882;52.170;5.386;2022-09-02T05:09:33;22.00;38.70
70807;DHT22;58882;52.170;5.386;2022-09-02T05:12:31;22.00;38.70
70807;DHT22;58882;52.170;5.386;2022-09-02T05:15:13;22.00;38.40
70807;DHT22;58882;52.170;5.386;2022-09-02T05:18:00;22.00;39.20
70807;DHT22;58882;52.170;5.386;2022-09-02T05:20:38;22.00;38.10
70807;DHT22;58882;52.170;5.386;2022-09-02T05:23:33;22.00;38.00
70807;DHT22;58882;52.170;5.386;2022-09-02T05:26:13;22.00;38.90
70807;DHT22;58882;52.170;5.386;2022-09-02T05:29:01;22.00;37.90
70807;DHT22;58882;52.170;5.386;2022-09-02T05:31:41;22.00;38.00
70807;DHT22;58882;52.170;5.386;2022-09-02T05:34:37;22.00;38.10
70807;DHT22;58882;52.170;5.386;2022-09-02T05:37:10;22.00;38.10
70807;DHT22;58882;52.170;5.386;2022-09-02T05:40:05;22.00;38.00
70807;DHT22;58882;52.170;5.386;2022-09-02T05:42:47;22.00;38.00
70807;DHT22;58882;52.170;5.386;2022-09-02T05:45:36;22.10;38.50
70807;DHT22;58882;52.170;5.386;2022-09-02T05:48:18;22.10;38.90
70807;DHT22;58882;52.170;5.386;2022-09-02T05:51:25;22.10;38.60
70807;DHT22;58882;52.170;5.386;2022-09-02T05:54:24;22.20;38.50
70807;DHT22;58882;52.170;5.386;2022-09-02T05:57:11;22.20;38.50
70807;DHT22;58882;52.170;5.386;2022-09-02T06:00:08;22.30;38.30
70807;DHT22;58882;52.170;5.386;2022-09-02T06:02:57;22.30;38.20
70807;DHT22;58882;52.170;5.386;2022-09-02T06:05:57;22.30;38.10
70807;DHT22;58882;52.170;5.386;2022-09-02T06:08:40;22.40;38.90
70807;DHT22;58882;52.170;5.386;2022-09-02T06:11:27;22.50;37.80
70807;DHT22;58882;52.170;5.386;2022-09-02T06:14:09;22.50;37.50
70807;DHT22;58882;52.170;5.386;2022-09-02T06:16:57;22.60;37.50
70807;DHT22;58882;52.170;5.386;2022-09-02T06:19:44;22.70;37.40
70807;DHT22;58882;52.170;5.386;2022-09-02T06:22:38;22.70;37.10
70807;DHT22;58882;52.170;5.386;2022-09-02T06:25:19;22.80;37.00
70807;DHT22;58882;52.170;5.386;2022-09-02T06:28:06;22.80;36.80
70807;DHT22;58882;52.170;5.386;2022-09-02T06:30:44;22.90;36.80
70807;DHT22;58882;52.170;5.386;2022-09-02T06:33:39;23.10;36.50
70807;DHT22;58882;52.170;5.386;2022-09-02T06:36:21;23.40;36.20
70807;DHT22;58882;52.170;5.386;2022-09-02T06:39:15;23.60;35.90
70807;DHT22;58882;52.170;5.386;2022-09-02T06:41:49;23.70;35.50
70807;DHT22;58882;52.170;5.386;2022-09-02T06:44:51;23.90;35.20
70807;DHT22;58882;52.170;5.386;2022-09-02T06:47:32;24.10;34.90
70807;DHT22;58882;52.170;5.386;2022-09-02T06:50:26;24.30;34.60
70807;DHT22;58882;52.170;5.386;2022-09-02T06:53:06;24.60;34.20
70807;DHT22;58882;52.170;5.386;2022-09-02T06:56:00;24.80;34.00
70807;DHT22;58882;52.170;5.386;2022-09-02T06:58:40;25.00;33.40
70807;DHT22;58882;52.170;5.386;2022-09-02T07:01:30;25.20;33.20
70807;DHT22;58882;52.170;5.386;2022-09-02T07:04:15;25.40;32.90
70807;DHT22;58882;52.170;5.386;2022-09-02T07:07:25;25.60;32.60
70807;DHT22;58882;52.170;5.386;2022-09-02T07:10:11;25.90;32.30
70807;DHT22;58882;52.170;5.386;2022-09-02T07:13:07;26.10;32.80
70807;DHT22;58882;52.170;5.386;2022-09-02T07:15:47;26.30;31.50
70807;DHT22;58882;52.170;5.386;2022-09-02T07:18:34;26.60;31.10
70807;DHT22;58882;52.170;5.386;2022-09-02T07:21:17;26.80;30.70
70807;DHT22;58882;52.170;5.386;2022-09-02T07:24:04;27.10;30.50
70807;DHT22;58882;52.170;5.386;2022-09-02T07:26:44;27.20;30.10
70807;DHT22;58882;52.170;5.386;2022-09-02T07:29:34;27.40;30.00
70807;DHT22;58882;52.170;5.386;2022-09-02T07:32:23;27.60;29.80
70807;DHT22;58882;52.170;5.386;2022-09-02T07:35:05;27.80;29.80
70807;DHT22;58882;52.170;5.386;2022-09-02T07:37:53;27.90;29.60
70807;DHT22;58882;52.170;5.386;2022-09-02T07:40:33;28.10;29.50
70807;DHT22;58882;52.170;5.386;2022-09-02T07:43:28;28.30;29.30
70807;DHT22;58882;52.170;5.386;2022-09-02T07:46:03;28.50;29.10
70807;DHT22;58882;52.170;5.386;2022-09-02T07:48:58;28.60;29.00
70807;DHT22;58882;52.170;5.386;2022-09-02T07:51:49;28.70;28.80
70807;DHT22;58882;52.170;5.386;2022-09-02T07:54:30;28.80;28.60
70807;DHT22;58882;52.170;5.386;2022-09-02T07:57:17;29.00;28.60
70807;DHT22;58882;52.170;5.386;2022-09-02T07:59:57;29.10;28.80
70807;DHT22;58882;52.170;5.386;2022-09-02T08:02:46;29.20;28.40
70807;DHT22;58882;52.170;5.386;2022-09-02T08:05:32;29.30;28.60
70807;DHT22;58882;52.170;5.386;2022-09-02T08:08:19;29.30;28.20
70807;DHT22;58882;52.170;5.386;2022-09-02T08:10:59;29.40;28.10
70807;DHT22;58882;52.170;5.386;2022-09-02T08:13:46;29.50;28.30
70807;DHT22;58882;52.170;5.386;2022-09-02T08:16:27;29.50;28.30
70807;DHT22;58882;52.170;5.386;2022-09-02T08:19:14;29.60;28.40
70807;DHT22;58882;52.170;5.386;2022-09-02T08:21:55;29.60;28.40
70807;DHT22;58882;52.170;5.386;2022-09-02T08:24:48;29.60;28.40
70807;DHT22;58882;52.170;5.386;2022-09-02T08:27:28;29.70;28.30
70807;DHT22;58882;52.170;5.386;2022-09-02T08:30:22;29.80;28.40
70807;DHT22;58882;52.170;5.386;2022-09-02T08:33:02;29.80;28.20
70807;DHT22;58882;52.170;5.386;2022-09-02T08:35:49;30.00;28.10
70807;DHT22;58882;52.170;5.386;2022-09-02T08:38:29;30.10;27.90
70807;DHT22;58882;52.170;5.386;2022-09-02T08:42:04;30.30;27.90
70807;DHT22;58882;52.170;5.386;2022-09-02T08:44:24;30.40;27.90
70807;DHT22;58882;52.170;5.386;2022-09-02T08:47:21;30.50;27.70
70807;DHT22;58882;52.170;5.386;2022-09-02T08:50:10;30.60;27.70
70807;DHT22;58882;52.170;5.386;2022-09-02T08:56:02;30.80;27.30
70807;DHT22;58882;52.170;5.386;2022-09-02T08:58:51;30.90;27.20
70807;DHT22;58882;52.170;5.386;2022-09-02T09:01:53;31.00;27.20
70807;DHT22;58882;52.170;5.386;2022-09-02T09:05:04;31.00;26.80
70807;DHT22;58882;52.170;5.386;2022-09-02T09:08:09;31.10;26.80
70807;DHT22;58882;52.170;5.386;2022-09-02T09:17:13;31.40;26.50
70807;DHT22;58882;52.170;5.386;2022-09-02T09:20:01;31.50;26.40
70807;DHT22;58882;52.170;5.386;2022-09-02T09:22:51;31.60;26.20
70807;DHT22;58882;52.170;5.386;2022-09-02T09:25:35;31.50;26.90
70807;DHT22;58882;52.170;5.386;2022-09-02T09:28:29;31.50;26.20
70807;DHT22;58882;52.170;5.386;2022-09-02T09:31:03;31.40;26.10
70807;DHT22;58882;52.170;5.386;2022-09-02T09:39:34;31.30;26.10
70807;DHT22;58882;52.170;5.386;2022-09-02T09:42:14;31.30;26.10
70807;DHT22;58882;52.170;5.386;2022-09-02T09:54:15;31.20;26.30
70807;DHT22;58882;52.170;5.386;2022-09-02T09:57:13;31.20;26.30
70807;DHT22;58882;52.170;5.386;2022-09-02T10:00:21;31.20;26.30
70807;DHT22;58882;52.170;5.386;2022-09-02T10:03:05;31.20;26.40
70807;DHT22;58882;52.170;5.386;2022-09-02T10:05:56;31.30;26.30
70807;DHT22;58882;52.170;5.386;2022-09-02T10:12:03;31.30;26.20
70807;DHT22;58882;52.170;5.386;2022-09-02T10:14:48;31.30;26.30
70807;DHT22;58882;52.170;5.386;2022-09-02T10:17:52;31.20;26.30
70807;DHT22;58882;52.170;5.386;2022-09-02T10:27:04;30.90;26.70
70807;DHT22;58882;52.170;5.386;2022-09-02T10:30:20;30.90;26.60
70807;DHT22;58882;52.170;5.386;2022-09-02T10:36:22;31.10;26.50
70807;DHT22;58882;52.170;5.386;2022-09-02T10:45:49;31.40;26.80
70807;DHT22;58882;52.170;5.386;2022-09-02T10:48:46;31.50;26.20
70807;DHT22;58882;52.170;5.386;2022-09-02T10:58:13;31.70;26.10
70807;DHT22;58882;52.170;5.386;2022-09-02T11:01:06;31.80;26.10
70807;DHT22;58882;52.170;5.386;2022-09-02T11:03:57;31.90;26.60
70807;DHT22;58882;52.170;5.386;2022-09-02T11:06:48;31.90;26.80
70807;DHT22;58882;52.170;5.386;2022-09-02T11:09:56;32.00;27.00
70807;DHT22;58882;52.170;5.386;2022-09-02T11:12:55;32.00;27.20
70807;DHT22;58882;52.170;5.386;2022-09-02T11:15:52;32.00;27.10
70807;DHT22;58882;52.170;5.386;2022-09-02T11:21:59;32.00;27.30
70807;DHT22;58882;52.170;5.386;2022-09-02T11:27:58;31.90;27.40
70807;DHT22;58882;52.170;5.386;2022-09-02T11:37:41;31.90;27.80
70807;DHT22;58882;52.170;5.386;2022-09-02T11:40:54;31.80;27.70
70807;DHT22;58882;52.170;5.386;2022-09-02T11:44:30;31.80;27.80
70807;DHT22;58882;52.170;5.386;2022-09-02T11:47:34;31.90;27.90
70807;DHT22;58882;52.170;5.386;2022-09-02T11:53:40;31.90;27.70
70807;DHT22;58882;52.170;5.386;2022-09-02T11:56:38;31.90;27.80
70807;DHT22;58882;52.170;5.386;2022-09-02T12:02:49;31.90;27.60
70807;DHT22;58882;52.170;5.386;2022-09-02T12:17:07;31.90;27.60
70807;DHT22;58882;52.170;5.386;2022-09-02T12:19:54;31.90;28.40
70807;DHT22;58882;52.170;5.386;2022-09-02T12:22:36;31.80;28.10
70807;DHT22;58882;52.170;5.386;2022-09-02T12:28:32;31.80;27.80
70807;DHT22;58882;52.170;5.386;2022-09-02T12:37:48;31.80;28.30
70807;DHT22;58882;52.170;5.386;2022-09-02T12:40:29;31.80;28.20
70807;DHT22;58882;52.170;5.386;2022-09-02T12:44:16;31.70;28.00
70807;DHT22;58882;52.170;5.386;2022-09-02T12:55:30;31.10;29.40
70807;DHT22;58882;52.170;5.386;2022-09-02T12:58:12;31.00;29.50
70807;DHT22;58882;52.170;5.386;2022-09-02T13:10:13;30.40;29.90
70807;DHT22;58882;52.170;5.386;2022-09-02T13:16:37;30.20;30.00
70807;DHT22;58882;52.170;5.386;2022-09-02T13:22:57;29.90;30.00
70807;DHT22;58882;52.170;5.386;2022-09-02T13:29:28;29.70;30.00
70807;DHT22;58882;52.170;5.386;2022-09-02T13:32:24;29.60;30.10
70807;DHT22;58882;52.170;5.386;2022-09-02T13:35:03;29.60;30.30
70807;DHT22;58882;52.170;5.386;2022-09-02T13:38:03;29.50;30.50
70807;DHT22;58882;52.170;5.386;2022-09-02T13:40:38;29.40;30.20
70807;DHT22;58882;52.170;5.386;2022-09-02T13:43:32;29.30;30.30
70807;DHT22;58882;52.170;5.386;2022-09-02T13:46:12;29.30;30.30
70807;DHT22;58882;52.170;5.386;2022-09-02T13:48:59;29.20;30.30
70807;DHT22;58882;52.170;5.386;2022-09-02T13:51:48;29.10;30.20
70807;DHT22;58882;52.170;5.386;2022-09-02T13:54:50;29.00;29.50
70807;DHT22;58882;52.170;5.386;2022-09-02T13:57:32;28.90;30.30
70807;DHT22;58882;52.170;5.386;2022-09-02T14:00:26;28.60;30.90
70807;DHT22;58882;52.170;5.386;2022-09-02T14:03:11;28.40;31.60
70807;DHT22;58882;52.170;5.386;2022-09-02T14:05:59;28.20;32.10
70807;DHT22;58882;52.170;5.386;2022-09-02T14:08:34;28.00;32.60
70807;DHT22;58882;52.170;5.386;2022-09-02T14:11:40;27.90;32.90
70807;DHT22;58882;52.170;5.386;2022-09-02T14:14:22;27.80;33.20
70807;DHT22;58882;52.170;5.386;2022-09-02T14:17:22;27.70;32.90
70807;DHT22;58882;52.170;5.386;2022-09-02T14:23:00;27.60;33.70
70807;DHT22;58882;52.170;5.386;2022-09-02T14:25:49;27.50;33.40
70807;DHT22;58882;52.170;5.386;2022-09-02T14:28:32;27.40;33.70
70807;DHT22;58882;52.170;5.386;2022-09-02T14:31:25;27.40;33.80
70807;DHT22;58882;52.170;5.386;2022-09-02T14:34:31;27.30;33.70
70807;DHT22;58882;52.170;5.386;2022-09-02T14:37:26;27.20;33.80
70807;DHT22;58882;52.170;5.386;2022-09-02T14:40:09;27.20;34.00
70807;DHT22;58882;52.170;5.386;2022-09-02T14:43:03;27.20;33.90
70807;DHT22;58882;52.170;5.386;2022-09-02T14:45:46;27.10;33.90
70807;DHT22;58882;52.170;5.386;2022-09-02T14:48:41;27.10;34.10
70807;DHT22;58882;52.170;5.386;2022-09-02T14:51:17;27.10;33.90
70807;DHT22;58882;52.170;5.386;2022-09-02T14:54:11;27.10;34.10
70807;DHT22;58882;52.170;5.386;2022-09-02T14:56:52;27.10;34.10
70807;DHT22;58882;52.170;5.386;2022-09-02T14:59:39;27.00;34.80
70807;DHT22;58882;52.170;5.386;2022-09-02T15:05:12;26.90;33.50
70807;DHT22;58882;52.170;5.386;2022-09-02T15:07:46;26.90;33.70
70807;DHT22;58882;52.170;5.386;2022-09-02T15:10:40;26.90;33.80
70807;DHT22;58882;52.170;5.386;2022-09-02T15:13:27;26.80;33.80
70807;DHT22;58882;52.170;5.386;2022-09-02T15:16:15;26.80;33.80
70807;DHT22;58882;52.170;5.386;2022-09-02T15:18:48;26.80;33.80
70807;DHT22;58882;52.170;5.386;2022-09-02T15:21:42;26.70;33.80
70807;DHT22;58882;52.170;5.386;2022-09-02T15:24:15;26.70;33.80
70807;DHT22;58882;52.170;5.386;2022-09-02T15:27:10;26.60;33.90
70807;DHT22;58882;52.170;5.386;2022-09-02T15:29:54;26.60;34.00
70807;DHT22;58882;52.170;5.386;2022-09-02T15:32:41;26.60;33.80
70807;DHT22;58882;52.170;5.386;2022-09-02T15:35:21;26.60;34.10
70807;DHT22;58882;52.170;5.386;2022-09-02T15:38:16;26.60;34.20
70807;DHT22;58882;52.170;5.386;2022-09-02T15:40:49;26.60;34.30
70807;DHT22;58882;52.170;5.386;2022-09-02T15:43:44;26.60;34.30
70807;DHT22;58882;52.170;5.386;2022-09-02T15:46:27;26.50;35.40
70807;DHT22;58882;52.170;5.386;2022-09-02T15:49:15;26.50;34.20
70807;DHT22;58882;52.170;5.386;2022-09-02T15:51:48;26.40;34.20
70807;DHT22;58882;52.170;5.386;2022-09-02T15:54:43;26.40;34.20
70807;DHT22;58882;52.170;5.386;2022-09-02T15:57:23;26.40;34.20
70807;DHT22;58882;52.170;5.386;2022-09-02T16:00:10;26.40;34.20
70807;DHT22;58882;52.170;5.386;2022-09-02T16:02:50;26.30;34.10
70807;DHT22;58882;52.170;5.386;2022-09-02T16:05:37;26.40;34.10
70807;DHT22;58882;52.170;5.386;2022-09-02T16:08:17;26.30;34.10
70807;DHT22;58882;52.170;5.386;2022-09-02T16:11:08;26.30;34.00
70807;DHT22;58882;52.170;5.386;2022-09-02T16:13:48;26.30;34.10
70807;DHT22;58882;52.170;5.386;2022-09-02T16:16:35;26.20;34.10
70807;DHT22;58882;52.170;5.386;2022-09-02T16:19:17;26.20;35.10
70807;DHT22;58882;52.170;5.386;2022-09-02T16:22:14;26.20;34.00
70807;DHT22;58882;52.170;5.386;2022-09-02T16:24:54;26.20;33.90
70807;DHT22;58882;52.170;5.386;2022-09-02T16:27:48;26.20;33.70
70807;DHT22;58882;52.170;5.386;2022-09-02T16:30:28;26.20;33.90
70807;DHT22;58882;52.170;5.386;2022-09-02T16:33:16;26.20;34.00
70807;DHT22;58882;52.170;5.386;2022-09-02T16:35:56;26.20;34.10
70807;DHT22;58882;52.170;5.386;2022-09-02T16:38:43;26.20;34.20
70807;DHT22;58882;52.170;5.386;2022-09-02T16:41:26;26.20;34.30
70807;DHT22;58882;52.170;5.386;2022-09-02T16:44:18;26.10;34.20
70807;DHT22;58882;52.170;5.386;2022-09-02T16:46:58;26.10;34.20
70807;DHT22;58882;52.170;5.386;2022-09-02T16:49:53;26.10;34.00
70807;DHT22;58882;52.170;5.386;2022-09-02T16:52:26;26.10;34.10
70807;DHT22;58882;52.170;5.386;2022-09-02T16:55:21;26.10;34.20
70807;DHT22;58882;52.170;5.386;2022-09-02T16:58:02;26.10;34.40
70807;DHT22;58882;52.170;5.386;2022-09-02T17:00:49;26.10;34.50
70807;DHT22;58882;52.170;5.386;2022-09-02T17:03:29;26.10;34.50
70807;DHT22;58882;52.170;5.386;2022-09-02T17:06:23;26.00;34.40
70807;DHT22;58882;52.170;5.386;2022-09-02T17:09:03;26.00;34.50
70807;DHT22;58882;52.170;5.386;2022-09-02T17:11:50;26.00;34.50
70807;DHT22;58882;52.170;5.386;2022-09-02T17:14:30;26.00;34.60
70807;DHT22;58882;52.170;5.386;2022-09-02T17:17:24;25.90;34.50
70807;DHT22;58882;52.170;5.386;2022-09-02T17:19:57;25.90;34.40
70807;DHT22;58882;52.170;5.386;2022-09-02T17:22:51;25.90;34.40
70807;DHT22;58882;52.170;5.386;2022-09-02T17:25:24;25.90;35.30
70807;DHT22;58882;52.170;5.386;2022-09-02T17:28:18;25.90;34.30
70807;DHT22;58882;52.170;5.386;2022-09-02T17:30:58;25.90;34.30
70807;DHT22;58882;52.170;5.386;2022-09-02T17:33:46;25.90;34.30
70807;DHT22;58882;52.170;5.386;2022-09-02T17:36:31;25.90;34.30
70807;DHT22;58882;52.170;5.386;2022-09-02T17:39:19;25.90;34.20
70807;DHT22;58882;52.170;5.386;2022-09-02T17:42:01;25.90;34.10
70807;DHT22;58882;52.170;5.386;2022-09-02T17:44:49;25.90;34.10
70807;DHT22;58882;52.170;5.386;2022-09-02T17:47:29;25.80;34.10
70807;DHT22;58882;52.170;5.386;2022-09-02T17:50:17;25.80;34.00
70807;DHT22;58882;52.170;5.386;2022-09-02T17:53:04;25.80;33.90
70807;DHT22;58882;52.170;5.386;2022-09-02T17:56:07;25.80;33.80
70807;DHT22;58882;52.170;5.386;2022-09-02T18:11:00;25.80;33.70
70807;DHT22;58882;52.170;5.386;2022-09-02T18:17:19;25.80;33.60
70807;DHT22;58882;52.170;5.386;2022-09-02T18:20:36;25.80;33.40
70807;DHT22;58882;52.170;5.386;2022-09-02T18:29:30;25.70;33.10
70807;DHT22;58882;52.170;5.386;2022-09-02T18:36:08;25.70;32.90
70807;DHT22;58882;52.170;5.386;2022-09-02T18:42:14;25.70;32.90
70807;DHT22;58882;52.170;5.386;2022-09-02T18:45:16;25.70;32.80
70807;DHT22;58882;52.170;5.386;2022-09-02T18:48:16;25.70;32.40
70807;DHT22;58882;52.170;5.386;2022-09-02T18:54:17;25.70;32.30
70807;DHT22;58882;52.170;5.386;2022-09-02T18:57:12;25.70;32.40
70807;DHT22;58882;52.170;5.386;2022-09-02T19:00:10;25.70;32.50
70807;DHT22;58882;52.170;5.386;2022-09-02T19:02:58;25.60;32.50
70807;DHT22;58882;52.170;5.386;2022-09-02T19:05:34;25.60;32.30
70807;DHT22;58882;52.170;5.386;2022-09-02T19:08:28;25.60;32.40
70807;DHT22;58882;52.170;5.386;2022-09-02T19:11:12;25.60;32.40
70807;DHT22;58882;52.170;5.386;2022-09-02T19:14:24;25.60;32.20
70807;DHT22;58882;52.170;5.386;2022-09-02T19:17:04;25.60;32.20
70807;DHT22;58882;52.170;5.386;2022-09-02T19:19:51;25.60;32.00
70807;DHT22;58882;52.170;5.386;2022-09-02T19:22:34;25.60;32.00
70807;DHT22;58882;52.170;5.386;2022-09-02T19:25:29;25.60;31.60
70807;DHT22;58882;52.170;5.386;2022-09-02T19:28:11;25.60;31.50
70807;DHT22;58882;52.170;5.386;2022-09-02T19:31:06;25.60;31.50
70807;DHT22;58882;52.170;5.386;2022-09-02T19:33:51;25.60;31.40
70807;DHT22;58882;52.170;5.386;2022-09-02T19:36:43;25.60;31.40
70807;DHT22;58882;52.170;5.386;2022-09-02T19:39:25;25.60;31.40
70807;DHT22;58882;52.170;5.386;2022-09-02T19:42:12;25.60;31.40
70807;DHT22;58882;52.170;5.386;2022-09-02T19:44:56;25.50;31.20
70807;DHT22;58882;52.170;5.386;2022-09-02T19:47:43;25.50;31.10
70807;DHT22;58882;52.170;5.386;2022-09-02T19:50:42;25.50;31.10
70807;DHT22;58882;52.170;5.386;2022-09-02T19:53:30;25.50;31.10
70807;DHT22;58882;52.170;5.386;2022-09-02T19:56:13;25.50;31.10
70807;DHT22;58882;52.170;5.386;2022-09-02T19:59:00;25.50;31.20
70807;DHT22;58882;52.170;5.386;2022-09-02T20:01:40;25.40;31.10
70807;DHT22;58882;52.170;5.386;2022-09-02T20:04:27;25.40;31.10
70807;DHT22;58882;52.170;5.386;2022-09-02T20:07:08;25.40;31.10
70807;DHT22;58882;52.170;5.386;2022-09-02T20:10:03;25.40;31.10
70807;DHT22;58882;52.170;5.386;2022-09-02T20:12:44;25.30;31.10
70807;DHT22;58882;52.170;5.386;2022-09-02T20:15:36;25.30;31.10
70807;DHT22;58882;52.170;5.386;2022-09-02T20:18:18;25.30;31.20